首页
METAR-TAF:

METAR-TAF

机场 :

布達佩斯李斯特·費倫茨國際機場

布达佩斯, 匈牙利

纬度: 47-26N, 经度: 019-16E, 海拔: 151米

当前天气观测

该预报发布于34分钟前的11:00 UTC
风速10节,风向西,在西转西南北转西北之间变化
温度 17°C
湿度 36%
气压 1024 hPa
能见度10公里或以上
1500米以下无云,无积雨云

METAR: LHBP 191100Z 28010KT 250V330 CAVOK 17/02 Q1024 NOSIG

时间: 13:34 (11:34 UTC)

预报

该预报发布于6小时和19分钟前的05:15 UTC
预报有效从19日的 06点(UTC)到 20日的 06点(UTC)
风速3节,风向多变
能见度10公里或以上
1500米以下无云,无积雨云
成为
从 19日的 08点(UTC)到 19日的 10点(UTC)
风速13节,风向西北
成为
从 19日的 17点(UTC)到 19日的 19点(UTC)
风速6节,风向北转西北
成为
从 20日的 00点(UTC)到 20日的 02点(UTC)
风速3节,风向多变

TAF: LHBP 190515Z 1906/2006 VRB03KT CAVOK BECMG 1908/1910 32013KT BECMG 1917/1919 34006KT BECMG 2000/2002 VRB03KT

超过4000个机场的气象观测和天气预报(METAR&TAF报告)。

可查询的气象台以黄色和红色小点在地图上表示。

将鼠标移到小点上方,可查看气象台名称。

然后点击查看天气观测和预报。

如需切换地图:点击带黑十字的绿色按钮放大地图;点击带横线的绿色按钮缩小地图;或者点击绿色箭头查看邻近地区的地图。


METAR-TAF: